Time;durP1;ratioP1;P1;durP2;ratioP2;P2;SDS_P1;SDS_P2;PMS_P1;PMS_P2;Temp;Humidity;BMP_temperature;BMP_pressure;BME280_temperature;BME280_humidity;BME280_pressure;Samples;Min_cycle;Max_cycle;Signal;HPM_P1;HPM_P2
2022/08/18 00:01:15;;;;;;;7.88;4.03;;;21.60;63.60;;;;;;5058102;28;20029;-60
2022/08/18 00:03:41;;;;;;;5.88;3.78;;;21.60;63.60;;;;;;5073959;28;20028;-60
2022/08/18 00:06:07;;;;;;;9.52;4.00;;;21.70;63.70;;;;;;5060933;28;20026;-59
2022/08/18 00:08:33;;;;;;;8.02;4.07;;;21.70;64.10;;;;;;5059517;28;20031;-59
2022/08/18 00:10:59;;;;;;;7.05;3.55;;;21.70;64.10;;;;;;5065974;28;20041;-61
2022/08/18 00:13:25;;;;;;;5.05;3.40;;;21.80;63.90;;;;;;5076876;28;20033;-59
2022/08/18 00:15:50;;;;;;;6.50;3.72;;;21.80;63.90;;;;;;5059164;28;20080;-59
2022/08/18 00:18:16;;;;;;;7.50;4.60;;;21.80;63.90;;;;;;5050558;28;20029;-59
2022/08/18 00:20:42;;;;;;;7.57;3.97;;;21.80;64.00;;;;;;5064849;28;20028;-59
2022/08/18 00:23:08;;;;;;;5.40;3.78;;;21.90;63.80;;;;;;5063304;28;20040;-59
2022/08/18 00:25:34;;;;;;;8.20;3.90;;;21.80;64.40;;;;;;5062380;28;20556;-60
2022/08/18 00:28:00;;;;;;;7.47;3.97;;;21.80;63.70;;;;;;5048886;28;20033;-61
2022/08/18 00:30:26;;;;;;;6.93;3.92;;;21.80;63.90;;;;;;5061978;28;20053;-60
2022/08/18 00:32:55;;;;;;;5.00;3.10;;;21.80;64.40;;;;;;5064165;28;20147;-60
2022/08/18 00:35:41;;;;;;;4.53;3.10;;;21.80;64.70;;;;;;5074726;28;20717;-59
2022/08/18 00:38:07;;;;;;;6.82;3.28;;;21.70;66.00;;;;;;5042200;28;20046;-60
2022/08/18 00:40:39;;;;;;;5.93;3.58;;;21.80;64.30;;;;;;5071679;28;20685;-60
2022/08/18 00:43:11;;;;;;;8.48;3.83;;;21.80;65.30;;;;;;5053020;28;20036;-59
2022/08/18 00:45:40;;;;;;;6.68;3.95;;;21.70;64.80;;;;;;5053138;28;20026;-60
2022/08/18 00:48:08;;;;;;;7.43;3.60;;;21.70;64.80;;;;;;5053738;28;20036;-60
2022/08/18 00:50:39;;;;;;;4.40;3.33;;;21.80;64.70;;;;;;5053588;28;20045;-59
2022/08/18 00:53:18;;;;;;;6.60;3.40;;;21.70;65.40;;;;;;5064739;28;20033;-60
2022/08/18 00:55:47;;;;;;;7.15;3.25;;;21.70;65.80;;;;;;5066275;28;20028;-59
2022/08/18 00:58:20;;;;;;;4.10;3.30;;;21.70;64.80;;;;;;5062149;28;20017;-60
2022/08/18 01:00:49;;;;;;;6.87;3.63;;;21.70;65.40;;;;;;5056908;28;20056;-59
2022/08/18 01:03:17;;;;;;;8.07;3.60;;;21.70;65.20;;;;;;5065964;28;20318;-63
2022/08/18 01:06:00;;;;;;;6.32;3.83;;;21.70;65.20;;;;;;5063316;28;20017;-60
2022/08/18 01:08:26;;;;;;;4.50;3.20;;;21.70;66.70;;;;;;5056983;28;20052;-59
2022/08/18 01:10:53;;;;;;;7.53;4.35;;;21.70;65.10;;;;;;5072197;28;20040;-60
2022/08/18 01:13:19;;;;;;;5.05;3.65;;;21.70;65.40;;;;;;5056990;28;20036;-60
2022/08/18 01:15:44;;;;;;;5.07;3.72;;;21.60;65.60;;;;;;5071037;28;20033;-60
2022/08/18 01:24:02;;;;;;;4.80;3.78;;;21.60;67.10;;;;;;5054766;28;20068;-60
2022/08/18 01:26:30;;;;;;;7.68;3.75;;;21.70;65.80;;;;;;5048243;28;20052;-59
2022/08/18 01:29:10;;;;;;;5.80;3.30;;;21.60;65.80;;;;;;5076350;28;20037;-58
2022/08/18 01:31:56;;;;;;;6.15;3.65;;;21.70;66.60;;;;;;5056186;28;20049;-58
2022/08/18 01:34:24;;;;;;;5.88;3.95;;;21.70;65.60;;;;;;5077165;28;20048;-60
2022/08/18 01:36:52;;;;;;;5.70;4.05;;;21.70;65.80;;;;;;5056352;28;20029;-59
2022/08/18 01:39:19;;;;;;;7.68;3.90;;;21.70;65.60;;;;;;5062233;28;20670;-60
2022/08/18 01:41:45;;;;;;;4.72;4.15;;;21.60;65.40;;;;;;5080876;28;20048;-60
2022/08/18 01:44:10;;;;;;;7.05;4.18;;;21.60;65.70;;;;;;5057708;28;20034;-60
2022/08/18 01:46:38;;;;;;;7.05;4.15;;;21.50;65.80;;;;;;5075276;28;20101;-61
2022/08/18 01:49:06;;;;;;;5.70;4.00;;;21.50;66.20;;;;;;5075264;28;20036;-60
2022/08/18 01:51:33;;;;;;;6.82;3.72;;;21.50;66.50;;;;;;5058327;28;20052;-60
2022/08/18 01:54:00;;;;;;;9.45;4.25;;;21.50;66.50;;;;;;5072594;28;20021;-59
2022/08/18 01:56:26;;;;;;;6.45;3.65;;;21.60;66.80;;;;;;5082839;28;20056;-60
2022/08/18 01:58:53;;;;;;;5.70;4.10;;;21.50;66.50;;;;;;5065694;28;20036;-59
2022/08/18 02:01:20;;;;;;;4.47;4.07;;;21.50;66.70;;;;;;5072236;28;20025;-61
2022/08/18 02:03:53;;;;;;;5.93;4.10;;;21.50;66.80;;;;;;5067158;28;20044;-60
2022/08/18 02:06:19;;;;;;;8.73;4.10;;;21.50;67.30;;;;;;5055909;28;20029;-59
2022/08/18 02:08:46;;;;;;;10.27;3.95;;;21.50;66.80;;;;;;5068200;28;20027;-59
2022/08/18 02:11:13;;;;;;;8.45;4.00;;;21.40;66.90;;;;;;5058176;28;20095;-61
2022/08/18 02:13:39;;;;;;;5.50;3.83;;;21.40;66.90;;;;;;5064888;28;20041;-61
2022/08/18 02:16:06;;;;;;;5.53;3.80;;;21.40;66.90;;;;;;5072878;28;20086;-60
2022/08/18 02:18:35;;;;;;;4.68;3.50;;;21.40;67.00;;;;;;5061479;28;20085;-59
2022/08/18 02:21:27;;;;;;;5.97;3.65;;;21.40;67.20;;;;;;5056720;28;20044;-60
2022/08/18 02:23:52;;;;;;;6.75;3.67;;;21.40;67.80;;;;;;5061614;28;20113;-60
2022/08/18 02:26:18;;;;;;;6.90;3.78;;;21.40;66.80;;;;;;5062398;28;20128;-60
2022/08/18 02:28:44;;;;;;;5.82;3.75;;;21.30;67.00;;;;;;5062038;28;20057;-62
2022/08/18 02:31:19;;;;;;;6.43;3.90;;;21.30;67.20;;;;;;5069375;28;20058;-60
2022/08/18 02:33:46;;;;;;;6.00;4.00;;;21.30;67.60;;;;;;5061967;28;20102;-61
2022/08/18 02:36:12;;;;;;;7.30;3.72;;;21.30;67.10;;;;;;5069342;28;20021;-60
2022/08/18 02:38:39;;;;;;;4.13;3.30;;;21.30;67.20;;;;;;5047769;28;20021;-60
2022/08/18 02:41:08;;;;;;;5.35;3.75;;;21.20;67.40;;;;;;5067175;28;20060;-61
2022/08/18 02:43:35;;;;;;;3.72;3.08;;;21.20;67.80;;;;;;5047785;28;20043;-60
2022/08/18 02:46:01;;;;;;;6.82;3.90;;;21.20;67.70;;;;;;5058243;28;20036;-60
2022/08/18 02:51:03;;;;;;;4.95;3.78;;;21.20;67.90;;;;;;5065855;28;20051;-59
2022/08/18 02:53:29;;;;;;;4.47;3.67;;;21.20;68.00;;;;;;5061621;28;20470;-59
2022/08/18 02:56:04;;;;;;;9.40;4.22;;;21.20;67.50;;;;;;5072418;28;20526;-59
2022/08/18 02:58:30;;;;;;;4.32;3.38;;;21.10;67.60;;;;;;5054422;28;20334;-61
2022/08/18 03:00:55;;;;;;;6.00;3.97;;;21.10;67.80;;;;;;5081887;28;20025;-61
2022/08/18 03:03:21;;;;;;;5.53;4.15;;;21.10;68.00;;;;;;5058326;28;20052;-60
2022/08/18 03:05:46;;;;;;;6.28;4.30;;;21.10;67.80;;;;;;5082315;28;20056;-60
2022/08/18 03:08:12;;;;;;;5.10;4.57;;;21.00;67.80;;;;;;5050725;28;20041;-62
2022/08/18 03:10:38;;;;;;;7.05;4.53;;;21.00;67.90;;;;;;5081407;28;20041;-60
2022/08/18 03:13:04;;;;;;;7.70;3.97;;;20.90;68.70;;;;;;5061056;28;20022;-59
2022/08/18 03:15:29;;;;;;;6.88;4.20;;;20.90;68.10;;;;;;5080994;28;20024;-60
2022/08/18 03:17:56;;;;;;;4.60;3.95;;;20.90;68.50;;;;;;5058159;28;20071;-60
2022/08/18 03:20:21;;;;;;;6.28;4.07;;;20.90;68.70;;;;;;5082564;28;20081;-59
2022/08/18 03:22:48;;;;;;;4.70;4.10;;;20.90;68.80;;;;;;5069398;28;20115;-60
2022/08/18 03:25:14;;;;;;;4.13;3.72;;;20.90;68.90;;;;;;5063641;28;20059;-60
2022/08/18 03:27:39;;;;;;;5.25;3.92;;;20.90;68.80;;;;;;5066863;28;20032;-59
2022/08/18 03:30:05;;;;;;;6.38;3.85;;;20.90;68.70;;;;;;5077731;28;20045;-59
2022/08/18 03:32:31;;;;;;;4.20;3.80;;;20.90;68.70;;;;;;5055012;28;20029;-59
2022/08/18 03:34:58;;;;;;;5.88;3.78;;;20.90;68.60;;;;;;5080646;28;20090;-61
2022/08/18 03:37:23;;;;;;;6.53;3.95;;;20.90;68.40;;;;;;5062241;28;20036;-59
2022/08/18 03:39:51;;;;;;;5.22;4.13;;;20.80;68.30;;;;;;5082774;28;20391;-58
2022/08/18 03:42:16;;;;;;;6.03;4.32;;;20.80;68.40;;;;;;5065612;28;20028;-60
2022/08/18 03:44:42;;;;;;;6.55;4.38;;;20.80;68.70;;;;;;5072271;28;20021;-60
2022/08/18 03:47:09;;;;;;;5.97;4.45;;;20.80;68.70;;;;;;5079764;28;20252;-61
2022/08/18 03:49:36;;;;;;;6.68;4.47;;;20.80;68.70;;;;;;5071728;28;20039;-60
2022/08/18 03:52:02;;;;;;;5.60;3.97;;;20.80;68.90;;;;;;5071786;28;20036;-60
2022/08/18 03:54:32;;;;;;;4.50;3.95;;;20.80;68.80;;;;;;5078775;28;20580;-58
2022/08/18 03:56:59;;;;;;;4.63;3.90;;;20.70;69.00;;;;;;5080531;28;20028;-59
2022/08/18 03:59:25;;;;;;;5.57;4.53;;;20.70;68.80;;;;;;5078719;28;20020;-59
2022/08/18 04:01:52;;;;;;;6.15;4.75;;;20.70;68.80;;;;;;5071060;28;20031;-60
2022/08/18 04:04:24;;;;;;;5.75;4.45;;;20.70;68.80;;;;;;5080711;28;20035;-60
2022/08/18 04:06:54;;;;;;;5.72;4.57;;;20.70;69.40;;;;;;5070691;28;20449;-61
2022/08/18 04:09:21;;;;;;;7.20;4.80;;;20.70;69.10;;;;;;5080621;28;20025;-59
2022/08/18 04:11:47;;;;;;;7.00;4.15;;;20.70;69.10;;;;;;5081645;28;20040;-60
2022/08/18 04:14:19;;;;;;;7.75;4.55;;;20.70;69.10;;;;;;5048328;28;20079;-59
2022/08/18 04:16:46;;;;;;;5.90;4.03;;;20.60;69.20;;;;;;5061925;28;20028;-61
2022/08/18 04:19:13;;;;;;;7.03;4.50;;;20.60;69.10;;;;;;5049312;28;20036;-59
2022/08/18 04:21:41;;;;;;;7.82;4.50;;;20.60;69.10;;;;;;5060362;28;20033;-60
2022/08/18 04:24:07;;;;;;;10.68;4.45;;;20.60;69.20;;;;;;5060893;28;20112;-61
2022/08/18 04:26:40;;;;;;;5.72;4.03;;;20.60;69.10;;;;;;5081724;28;20037;-60
2022/08/18 04:29:07;;;;;;;8.25;4.65;;;20.50;69.40;;;;;;5058637;28;20035;-60
2022/08/18 04:31:33;;;;;;;6.15;4.13;;;20.50;69.20;;;;;;5081400;28;20077;-60
2022/08/18 04:34:00;;;;;;;7.65;4.78;;;20.50;69.10;;;;;;5060717;28;20032;-60
2022/08/18 04:36:27;;;;;;;5.80;4.53;;;20.50;69.20;;;;;;5040628;28;20097;-60
2022/08/18 04:38:54;;;;;;;9.38;4.78;;;20.50;69.30;;;;;;5062506;28;20037;-58
2022/08/18 04:41:26;;;;;;;6.05;4.97;;;20.50;69.40;;;;;;5081518;28;20060;-61
2022/08/18 04:43:53;;;;;;;6.85;5.10;;;20.50;69.50;;;;;;5054740;28;20056;-60
2022/08/18 04:46:18;;;;;;;6.97;5.18;;;20.40;69.50;;;;;;5065030;28;20028;-60
2022/08/18 04:48:44;;;;;;;5.50;4.72;;;20.40;69.50;;;;;;5064887;28;20044;-59
2022/08/18 04:51:12;;;;;;;6.28;4.72;;;20.40;69.50;;;;;;5055343;28;20310;-59
2022/08/18 04:53:45;;;;;;;6.47;5.75;;;20.40;69.70;;;;;;5064649;28;20024;-61
2022/08/18 04:56:26;;;;;;;6.53;5.45;;;20.40;69.70;;;;;;5042092;28;20030;-61
2022/08/18 04:58:58;;;;;;;8.73;5.22;;;20.40;71.00;;;;;;5063027;28;20025;-59
2022/08/18 05:01:32;;;;;;;6.78;5.05;;;20.50;70.10;;;;;;5051491;28;20071;-60
2022/08/18 05:03:58;;;;;;;5.57;4.47;;;20.40;70.20;;;;;;5056825;28;20063;-59
2022/08/18 05:06:25;;;;;;;5.97;4.82;;;20.50;70.00;;;;;;5081256;28;20036;-60
2022/08/18 05:08:57;;;;;;;6.32;4.93;;;20.50;70.00;;;;;;5060013;28;20036;-59
2022/08/18 05:11:27;;;;;;;8.40;5.13;;;20.50;70.50;;;;;;5043484;28;20109;-59
2022/08/18 05:13:56;;;;;;;7.43;4.80;;;20.60;70.10;;;;;;5054643;28;20064;-59
2022/08/18 05:16:22;;;;;;;7.28;5.00;;;20.70;70.50;;;;;;5059107;28;20033;-59
2022/08/18 05:18:47;;;;;;;5.47;4.28;;;20.70;70.30;;;;;;5064258;28;20036;-59
2022/08/18 05:21:14;;;;;;;5.72;4.72;;;20.70;70.30;;;;;;5082829;28;20028;-61
2022/08/18 05:23:45;;;;;;;9.35;5.18;;;20.80;70.40;;;;;;5059770;28;20092;-59
2022/08/18 05:26:13;;;;;;;6.95;5.30;;;20.90;70.80;;;;;;5057140;28;20036;-60
2022/08/18 05:28:43;;;;;;;10.15;5.53;;;21.00;70.50;;;;;;5061376;28;20025;-60
2022/08/18 05:31:17;;;;;;;5.65;5.05;;;21.10;70.50;;;;;;5059568;28;20061;-61
2022/08/18 05:33:44;;;;;;;6.80;5.18;;;21.20;70.60;;;;;;5058055;28;20934;-61
2022/08/18 05:36:22;;;;;;;7.10;5.22;;;21.30;70.30;;;;;;5080639;28;20400;-61
2022/08/18 05:39:10;;;;;;;9.20;5.07;;;21.40;71.00;;;;;;5061006;28;20041;-59
2022/08/18 05:41:39;;;;;;;8.95;5.78;;;21.50;70.80;;;;;;5044123;28;20129;-60
2022/08/18 05:44:07;;;;;;;8.77;5.32;;;21.60;69.80;;;;;;5066666;28;20033;-60
2022/08/18 05:46:51;;;;;;;6.55;5.32;;;21.70;69.80;;;;;;5083587;28;20028;-60
2022/08/18 05:49:18;;;;;;;6.43;5.07;;;21.80;70.10;;;;;;5057004;28;20299;-59
2022/08/18 05:51:53;;;;;;;5.75;5.10;;;21.90;69.40;;;;;;5081997;28;20051;-60
2022/08/18 05:57:16;;;;;;;5.43;4.93;;;22.00;69.10;;;;;;5047887;28;20097;-60
2022/08/18 05:59:42;;;;;;;6.47;5.50;;;22.00;68.90;;;;;;5044299;28;20029;-59
2022/08/18 06:02:29;;;;;;;7.60;5.25;;;22.00;68.60;;;;;;5064459;28;20044;-60
2022/08/18 06:04:58;;;;;;;7.45;5.72;;;22.00;69.30;;;;;;5059059;28;20031;-59
2022/08/18 06:07:51;;;;;;;6.50;5.00;;;22.00;68.60;;;;;;5065087;28;20175;-60
2022/08/18 06:10:17;;;;;;;5.30;4.80;;;22.10;69.00;;;;;;5062019;28;20029;-60
2022/08/18 06:12:48;;;;;;;5.25;4.57;;;22.10;68.30;;;;;;5071397;28;20090;-60
2022/08/18 06:15:38;;;;;;;5.90;5.30;;;22.20;68.90;;;;;;5045135;28;20032;-60
2022/08/18 06:18:22;;;;;;;5.65;4.55;;;22.20;69.90;;;;;;5070561;28;20096;-62
2022/08/18 06:21:04;;;;;;;6.30;4.47;;;22.30;68.90;;;;;;5066249;28;20032;-60
2022/08/18 06:23:51;;;;;;;8.43;4.95;;;22.30;68.70;;;;;;5071909;28;20112;-62
2022/08/18 06:26:20;;;;;;;9.00;5.68;;;22.40;68.30;;;;;;5066987;28;20020;-60
2022/08/18 06:28:59;;;;;;;5.78;5.03;;;22.40;67.80;;;;;;5066003;28;20028;-59
2022/08/18 06:31:43;;;;;;;6.90;5.47;;;22.40;67.80;;;;;;5058000;28;20072;-61
2022/08/18 06:34:32;;;;;;;8.90;4.93;;;22.40;68.00;;;;;;5068304;28;20107;-59
2022/08/18 06:37:07;;;;;;;7.70;5.00;;;22.40;68.00;;;;;;5062927;28;20029;-60
2022/08/18 06:39:45;;;;;;;6.57;4.78;;;22.40;67.80;;;;;;5065193;28;20052;-59
2022/08/18 06:42:11;;;;;;;5.60;4.95;;;22.40;68.20;;;;;;5069491;28;20021;-59
2022/08/18 06:44:45;;;;;;;6.65;4.88;;;22.40;67.80;;;;;;5070696;28;20113;-59
2022/08/18 06:47:36;;;;;;;7.40;5.10;;;22.50;69.20;;;;;;5064573;28;20059;-59
2022/08/18 06:50:10;;;;;;;5.50;4.55;;;22.50;69.30;;;;;;5065589;28;20051;-60
2022/08/18 06:52:38;;;;;;;7.78;4.65;;;22.50;68.30;;;;;;5074927;28;20093;-60
2022/08/18 06:55:17;;;;;;;5.43;4.82;;;22.50;68.20;;;;;;5066403;28;20058;-59
2022/08/18 06:57:57;;;;;;;5.57;4.68;;;22.60;68.70;;;;;;5070145;28;20458;-59
2022/08/18 07:00:26;;;;;;;7.63;5.15;;;22.70;68.80;;;;;;5061953;28;20754;-59
2022/08/18 07:03:10;;;;;;;7.13;5.50;;;22.70;68.30;;;;;;5063713;28;20043;-60
2022/08/18 07:05:53;;;;;;;7.90;5.05;;;23.00;68.80;;;;;;5068289;28;20029;-61
2022/08/18 07:08:43;;;;;;;7.40;5.10;;;22.90;67.90;;;;;;5068668;28;20028;-59
2022/08/18 07:11:12;;;;;;;4.97;4.50;;;23.00;67.90;;;;;;5063096;28;20062;-60
2022/08/18 07:13:40;;;;;;;6.50;4.95;;;23.10;67.90;;;;;;5069812;28;20020;-60
2022/08/18 07:16:32;;;;;;;7.63;5.15;;;23.10;67.30;;;;;;5055607;28;20029;-60
2022/08/18 07:19:07;;;;;;;10.02;5.03;;;23.20;67.00;;;;;;5054145;28;20488;-61
2022/08/18 07:21:33;;;;;;;;;;;23.20;66.80;;;;;;5067405;28;20080;-60
2022/08/18 07:24:07;;;;;;;4.80;4.20;;;23.30;66.50;;;;;;5062832;28;19939;-60
2022/08/18 07:26:58;;;;;;;7.68;4.57;;;23.30;66.20;;;;;;5056115;28;20089;-59
2022/08/18 07:29:25;;;;;;;8.23;4.75;;;23.30;66.70;;;;;;5056872;28;20040;-60
2022/08/18 07:31:53;;;;;;;7.38;5.45;;;23.30;66.50;;;;;;5074920;28;20562;-59
2022/08/18 07:34:36;;;;;;;6.65;4.53;;;23.30;66.30;;;;;;5063903;28;20039;-60
2022/08/18 07:37:40;;;;;;;7.38;4.88;;;23.30;66.20;;;;;;5058318;28;20069;-60
2022/08/18 07:40:27;;;;;;;5.63;4.47;;;23.30;66.70;;;;;;5041638;28;20075;-60
2022/08/18 07:43:04;;;;;;;7.30;4.43;;;23.40;66.70;;;;;;5049067;28;20120;-60
2022/08/18 07:45:36;;;;;;;5.97;4.45;;;23.30;66.70;;;;;;5043381;28;20033;-60
2022/08/18 07:48:34;;;;;;;7.00;4.50;;;23.40;66.40;;;;;;5050510;28;20036;-60
2022/08/18 07:51:28;;;;;;;4.70;3.78;;;23.50;66.90;;;;;;5003240;28;20057;-60
2022/08/18 07:54:37;;;;;;;5.93;4.38;;;23.50;67.20;;;;;;5014581;28;20066;-60
2022/08/18 07:57:32;;;;;;;5.25;4.03;;;23.60;66.70;;;;;;5010990;28;20041;-59
2022/08/18 08:00:25;;;;;;;4.43;3.83;;;23.70;66.50;;;;;;5011891;28;20046;-60
2022/08/18 08:02:57;;;;;;;5.95;3.60;;;23.80;65.80;;;;;;5018643;28;20046;-60
2022/08/18 08:05:52;;;;;;;4.22;3.55;;;23.80;65.60;;;;;;5032307;28;20034;-60
2022/08/18 08:08:41;;;;;;;5.80;3.67;;;23.90;65.60;;;;;;5023079;28;20463;-60
2022/08/18 08:11:30;;;;;;;4.88;4.05;;;23.90;65.30;;;;;;5021056;28;20053;-60
2022/08/18 08:14:17;;;;;;;5.90;3.58;;;24.00;64.80;;;;;;5013286;28;20077;-61
2022/08/18 08:16:46;;;;;;;6.00;3.75;;;24.00;64.90;;;;;;5020560;28;20428;-60
2022/08/18 08:19:28;;;;;;;5.28;4.07;;;24.10;65.00;;;;;;5036342;28;20037;-61
2022/08/18 08:22:05;;;;;;;6.18;3.60;;;24.10;65.00;;;;;;5016218;28;20524;-61
2022/08/18 08:24:40;;;;;;;4.28;3.85;;;24.10;65.00;;;;;;5004650;28;20727;-60
2022/08/18 08:27:31;;;;;;;7.85;3.42;;;24.10;64.50;;;;;;5030276;28;20472;-61
2022/08/18 08:30:05;;;;;;;4.70;3.35;;;24.20;64.60;;;;;;5063506;28;20055;-61
2022/08/18 08:32:35;;;;;;;3.92;3.47;;;24.20;63.90;;;;;;5069005;28;20035;-60
2022/08/18 08:35:04;;;;;;;5.85;4.07;;;24.20;64.20;;;;;;5044333;28;20034;-60
2022/08/18 08:37:41;;;;;;;3.53;3.22;;;24.20;64.10;;;;;;5080358;28;20034;-60
2022/08/18 08:40:23;;;;;;;4.60;3.72;;;24.20;64.50;;;;;;5044358;28;20029;-60
2022/08/18 08:42:52;;;;;;;4.50;3.67;;;24.30;64.60;;;;;;5059489;28;20098;-59
2022/08/18 08:45:21;;;;;;;5.22;4.00;;;24.30;64.20;;;;;;5080877;28;20036;-59
2022/08/18 08:48:12;;;;;;;7.93;3.92;;;24.30;64.40;;;;;;5064897;28;20033;-60
2022/08/18 08:51:05;;;;;;;6.35;3.28;;;24.30;64.20;;;;;;5041557;28;20060;-60
2022/08/18 08:53:50;;;;;;;6.97;3.40;;;24.30;64.00;;;;;;5048225;28;20041;-61
2022/08/18 08:56:28;;;;;;;4.35;3.20;;;24.40;64.40;;;;;;5063298;28;20065;-60
2022/08/18 08:59:01;;;;;;;5.72;4.07;;;24.40;64.20;;;;;;5067649;28;20066;-62
2022/08/18 09:01:41;;;;;;;4.40;3.33;;;24.50;64.00;;;;;;5044062;28;20036;-61
2022/08/18 09:04:28;;;;;;;6.18;3.28;;;24.60;63.90;;;;;;5061767;28;20084;-63
2022/08/18 09:07:21;;;;;;;4.13;3.08;;;24.70;64.30;;;;;;5089548;28;20052;-60
2022/08/18 09:09:46;;;;;;;3.78;2.88;;;25.00;63.20;;;;;;5058994;28;20029;-62
2022/08/18 09:12:27;;;;;;;5.20;3.08;;;25.20;63.70;;;;;;5074406;28;20032;-61
2022/08/18 09:15:15;;;;;;;5.05;3.13;;;25.40;62.60;;;;;;5065442;28;20082;-61
2022/08/18 09:17:57;;;;;;;4.45;2.95;;;25.60;61.10;;;;;;5055195;28;20021;-62
2022/08/18 09:20:26;;;;;;;4.53;2.92;;;25.80;58.70;;;;;;5066209;28;20029;-61
2022/08/18 09:23:10;;;;;;;4.95;2.30;;;25.90;58.90;;;;;;5061362;28;20033;-62
2022/08/18 09:25:40;;;;;;;4.07;2.70;;;26.00;57.10;;;;;;5063729;28;20037;-62
2022/08/18 09:28:13;;;;;;;4.43;2.80;;;26.00;57.80;;;;;;5057030;28;20056;-63
2022/08/18 09:31:01;;;;;;;5.15;2.75;;;26.00;57.60;;;;;;5072122;28;20058;-62
2022/08/18 09:33:45;;;;;;;3.53;3.17;;;26.00;57.60;;;;;;5059226;28;20112;-63
2022/08/18 09:36:24;;;;;;;4.70;2.55;;;26.10;57.60;;;;;;5044454;28;20416;-61
2022/08/18 09:42:05;;;;;;;3.00;2.53;;;26.20;57.90;;;;;;5080660;28;20051;-62
2022/08/18 09:44:40;;;;;;;3.90;2.53;;;26.20;57.40;;;;;;5071085;28;20096;-61
2022/08/18 09:47:07;;;;;;;3.80;2.63;;;26.40;57.00;;;;;;5055516;28;20033;-61
2022/08/18 09:49:45;;;;;;;4.97;2.90;;;26.50;57.10;;;;;;4977197;28;20021;-63
2022/08/18 09:52:20;;;;;;;6.80;3.20;;;26.60;56.40;;;;;;5063343;28;20046;-63
2022/08/18 09:54:52;;;;;;;2.60;2.20;;;26.60;56.10;;;;;;5066609;28;20033;-61
2022/08/18 09:57:23;;;;;;;3.97;2.47;;;26.70;56.60;;;;;;5051902;28;20028;-62
2022/08/18 09:59:49;;;;;;;6.05;2.90;;;26.70;56.50;;;;;;5058365;28;20058;-62
2022/08/18 10:02:27;;;;;;;4.18;2.78;;;26.70;55.90;;;;;;5062442;28;20425;-62
2022/08/18 10:05:19;;;;;;;6.30;2.67;;;26.70;56.40;;;;;;5058203;28;20093;-62
2022/08/18 10:08:15;;;;;;;5.10;2.58;;;26.70;55.70;;;;;;5084160;28;20032;-61
2022/08/18 10:11:13;;;;;;;2.70;2.45;;;26.80;55.60;;;;;;5044381;28;20046;-62
2022/08/18 10:14:02;;;;;;;5.50;2.67;;;26.70;55.50;;;;;;5053064;28;20047;-61
2022/08/18 10:16:39;;;;;;;3.85;2.85;;;26.80;56.50;;;;;;5059061;28;20066;-62
2022/08/18 10:19:28;;;;;;;3.22;2.58;;;26.80;55.70;;;;;;5050947;28;20084;-61
2022/08/18 10:21:57;;;;;;;4.93;2.88;;;27.00;56.10;;;;;;5044141;28;20021;-62
2022/08/18 10:24:32;;;;;;;4.25;3.08;;;27.10;56.70;;;;;;5071483;28;20170;-61
2022/08/18 10:27:03;;;;;;;3.75;3.00;;;27.20;55.40;;;;;;5083463;28;20024;-61
2022/08/18 10:29:29;;;;;;;3.85;2.90;;;27.30;55.80;;;;;;5051415;28;20056;-61
2022/08/18 10:31:54;;;;;;;4.22;3.50;;;27.50;55.20;;;;;;5082184;28;20185;-62
2022/08/18 10:34:37;;;;;;;3.80;3.13;;;27.50;54.90;;;;;;5063284;28;20529;-61
2022/08/18 10:37:49;;;;;;;4.90;3.80;;;27.60;54.00;;;;;;5083185;28;20036;-62
2022/08/18 10:40:22;;;;;;;3.60;2.80;;;27.70;54.00;;;;;;5059948;28;20052;-61
2022/08/18 10:42:56;;;;;;;4.93;3.25;;;27.70;54.10;;;;;;5083336;28;20052;-61
2022/08/18 10:45:28;;;;;;;;;;;27.80;54.10;;;;;;5048027;28;20037;-61
2022/08/18 10:48:20;;;;;;;5.30;3.63;;;28.00;54.20;;;;;;5083019;28;20579;-61
2022/08/18 10:51:00;;;;;;;7.20;4.30;;;28.20;53.10;;;;;;5042631;28;20042;-63
2022/08/18 10:53:39;;;;;;;4.65;3.72;;;28.30;52.90;;;;;;5044881;28;20032;-62
2022/08/18 10:56:17;;;;;;;5.47;3.75;;;28.40;53.00;;;;;;5083760;28;20024;-62
2022/08/18 10:58:52;;;;;;;4.45;3.85;;;28.40;52.50;;;;;;5063188;28;20077;-62
2022/08/18 11:01:37;;;;;;;4.75;3.55;;;28.50;53.50;;;;;;5043367;28;20049;-61
2022/08/18 11:04:25;;;;;;;4.10;3.70;;;28.70;53.50;;;;;;5062470;28;20106;-62
2022/08/18 11:07:00;;;;;;;5.95;3.90;;;28.90;53.60;;;;;;5054151;28;20044;-61
2022/08/18 11:09:29;;;;;;;5.97;4.22;;;29.00;52.60;;;;;;5052253;28;20029;-61
2022/08/18 11:11:58;;;;;;;4.95;4.10;;;29.10;51.80;;;;;;5082878;28;20041;-62
2022/08/18 11:14:49;;;;;;;6.05;4.13;;;29.20;51.60;;;;;;5048405;28;20075;-62
2022/08/18 11:17:37;;;;;;;8.07;4.20;;;29.20;51.30;;;;;;5081701;28;20044;-64
2022/08/18 11:20:06;;;;;;;6.60;4.40;;;29.30;50.40;;;;;;5065898;28;20037;-62
2022/08/18 11:22:34;;;;;;;5.50;4.60;;;29.40;50.40;;;;;;5082541;28;20059;-63
2022/08/18 11:25:03;;;;;;;5.70;3.78;;;29.40;49.80;;;;;;5062167;28;20036;-61
2022/08/18 11:27:32;;;;;;;6.90;4.03;;;29.30;50.10;;;;;;5070143;28;20051;-62
2022/08/18 11:30:00;;;;;;;7.25;4.53;;;29.20;50.20;;;;;;5064897;28;20056;-63
2022/08/18 11:32:31;;;;;;;7.22;4.38;;;29.20;50.30;;;;;;5083129;28;20032;-63
2022/08/18 11:34:57;;;;;;;5.22;3.92;;;29.10;50.10;;;;;;5040775;28;20029;-64
2022/08/18 11:37:22;;;;;;;5.68;4.22;;;29.00;50.00;;;;;;5080680;28;20062;-62
2022/08/18 11:39:51;;;;;;;5.78;4.15;;;29.00;50.40;;;;;;5061845;28;20037;-62
2022/08/18 11:42:24;;;;;;;5.05;3.97;;;28.90;50.80;;;;;;5082343;28;20036;-62
2022/08/18 11:44:52;;;;;;;4.78;3.67;;;28.90;50.50;;;;;;5056706;28;20262;-61
2022/08/18 11:47:21;;;;;;;4.53;3.58;;;28.90;51.00;;;;;;5083466;28;20092;-62
2022/08/18 11:49:58;;;;;;;4.63;3.25;;;28.90;51.00;;;;;;5076051;28;20440;-62
2022/08/18 11:52:28;;;;;;;4.43;4.00;;;29.00;50.50;;;;;;5044041;28;20034;-62
2022/08/18 11:55:05;;;;;;;4.88;4.00;;;29.10;51.00;;;;;;5066953;28;20033;-62
2022/08/18 11:57:48;;;;;;;4.55;3.25;;;29.10;49.90;;;;;;5042615;28;20113;-62
2022/08/18 12:00:42;;;;;;;4.32;3.90;;;29.20;51.00;;;;;;5050949;28;20040;-61
2022/08/18 12:03:39;;;;;;;4.70;3.57;;;29.40;50.10;;;;;;5081548;28;20523;-63
2022/08/18 12:06:24;;;;;;;4.53;3.38;;;29.60;50.70;;;;;;5042413;28;20242;-63
2022/08/18 12:09:00;;;;;;;5.38;3.28;;;29.90;50.10;;;;;;5077414;28;20021;-62
2022/08/18 12:11:32;;;;;;;7.13;3.33;;;30.10;50.00;;;;;;5082194;28;20040;-62
2022/08/18 12:14:08;;;;;;;5.88;3.35;;;30.40;49.60;;;;;;5050964;28;20052;-63
2022/08/18 12:16:36;;;;;;;6.10;3.83;;;30.60;48.20;;;;;;5065887;28;20025;-61
2022/08/18 12:19:04;;;;;;;4.35;3.28;;;30.70;47.40;;;;;;5080127;28;20430;-62
2022/08/18 12:21:29;;;;;;;8.30;3.70;;;30.70;47.00;;;;;;5082470;28;20418;-60
2022/08/18 12:23:55;;;;;;;5.78;3.42;;;30.60;46.40;;;;;;5061400;28;20052;-62
2022/08/18 12:26:21;;;;;;;3.72;3.25;;;30.50;46.30;;;;;;5081418;28;20028;-62
2022/08/18 12:28:46;;;;;;;5.15;3.40;;;30.30;46.20;;;;;;5061376;28;20029;-62
2022/08/18 12:31:12;;;;;;;6.20;3.70;;;30.10;45.90;;;;;;5053172;28;20101;-62
2022/08/18 12:33:38;;;;;;;8.32;3.60;;;30.00;46.70;;;;;;5073142;28;20028;-62
2022/08/18 12:36:05;;;;;;;9.77;4.18;;;29.90;47.30;;;;;;5062059;28;20018;-61
2022/08/18 12:38:32;;;;;;;5.90;3.78;;;29.80;47.30;;;;;;5081264;28;20029;-62
2022/08/18 12:40:58;;;;;;;4.30;3.25;;;29.80;47.30;;;;;;5042555;28;20033;-62
2022/08/18 12:43:24;;;;;;;7.63;3.72;;;29.90;47.90;;;;;;5080428;28;20029;-62
2022/08/18 12:45:50;;;;;;;8.05;4.10;;;29.90;47.50;;;;;;5060268;28;20044;-63
2022/08/18 12:48:16;;;;;;;4.82;3.45;;;30.00;47.80;;;;;;5084614;28;20029;-61
2022/08/18 12:50:42;;;;;;;12.40;4.10;;;30.10;46.80;;;;;;5064831;28;20029;-62
2022/08/18 12:53:07;;;;;;;4.20;2.90;;;30.10;46.20;;;;;;5085376;28;20078;-62
2022/08/18 12:55:36;;;;;;;5.75;3.00;;;30.00;45.80;;;;;;5064182;28;20033;-61
2022/08/18 12:58:04;;;;;;;6.43;3.55;;;30.00;46.40;;;;;;5085400;28;20070;-62
2022/08/18 13:00:30;;;;;;;5.32;3.67;;;30.00;46.70;;;;;;5064893;28;20031;-62
2022/08/18 13:02:56;;;;;;;4.45;3.00;;;30.00;46.60;;;;;;5085105;28;20027;-60
2022/08/18 13:05:22;;;;;;;6.90;3.35;;;30.00;46.30;;;;;;5065069;28;20482;-60
2022/08/18 13:07:48;;;;;;;5.43;3.38;;;29.90;45.90;;;;;;5084999;28;20052;-59
2022/08/18 13:10:13;;;;;;;7.75;3.47;;;29.90;46.00;;;;;;5063732;28;20483;-62
2022/08/18 13:12:39;;;;;;;4.95;3.05;;;29.90;47.00;;;;;;5055731;28;20036;-61
2022/08/18 13:15:08;;;;;;;8.15;3.40;;;29.90;47.00;;;;;;5070304;28;20032;-59
2022/08/18 13:17:36;;;;;;;4.85;3.40;;;29.90;46.30;;;;;;5085374;28;20047;-60
2022/08/18 13:20:10;;;;;;;4.05;2.95;;;30.00;45.70;;;;;;5074573;28;20029;-60
2022/08/18 13:22:39;;;;;;;5.63;3.00;;;30.00;45.70;;;;;;5046644;28;20026;-59
2022/08/18 13:25:06;;;;;;;5.20;3.72;;;30.00;45.20;;;;;;5073421;28;20025;-59
2022/08/18 13:27:36;;;;;;;6.97;3.25;;;29.90;45.50;;;;;;5077898;28;20033;-60
2022/08/18 13:30:08;;;;;;;5.03;3.13;;;29.90;45.40;;;;;;5075643;28;20049;-60
2022/08/18 13:32:33;;;;;;;4.85;3.15;;;30.00;45.50;;;;;;5073149;28;20112;-60